Thursday, June 21, 2018, 12:06 PM EDT
Back to Local

KTAN, Taunton Municipal Airport

Location: East Taunton, MA, United States Lat: 41.883
Local Time: 12:06 PM EDT (16:06 GMT) Lon: -71.017
Time Zone: US/Eastern Elev: 42 ft

Show me the last for .
Show Decoded

2018-06-21 11:52 METAR KTAN 211552Z AUTO VRB04KT 10SM SCT040 27/16 A2977 RMK AO2 SLP078 T02670156
                 =
2018-06-21 10:52 METAR KTAN 211452Z AUTO 00000KT 10SM CLR 26/16 A2977 RMK AO2 SLP081 T02610156
                 51001 =
2018-06-21 09:52 METAR KTAN 211352Z AUTO VRB04KT 10SM FEW030 24/16 A2977 RMK AO2 SLP080 T02390161
                 =
2018-06-21 08:52 METAR KTAN 211252Z AUTO 19007KT 10SM CLR 24/16 A2978 RMK AO2 SLP082 T02390161 =
2018-06-21 07:52 METAR KTAN 211152Z AUTO 10SM CLR 22/17 A2977 RMK AO2 SLP080 T02220172 10222
                 20156 53009 =
2018-06-21 06:52 METAR KTAN 211052Z AUTO 22005KT 10SM CLR 20/18 A2976 RMK AO2 SLP077 T02000183 =
2018-06-21 05:52 METAR KTAN 210952Z AUTO 22003KT 10SM CLR 19/18 A2975 RMK AO2 SLP073 T01940178 =
2018-06-21 04:52 METAR KTAN 210852Z AUTO 10SM CLR 19/17 A2974 RMK AO2 SLP071 T01890172 55005 =
2018-06-21 03:52 METAR KTAN 210752Z AUTO 00000KT 10SM CLR 17/17 A2974 RMK AO2 SLP069 T01720167 =
2018-06-21 02:52 METAR KTAN 210652Z AUTO 22003KT 10SM CLR 18/17 A2975 RMK AO2 SLP072 T01830172 =
2018-06-21 02:09 METAR KTAN 210609Z AUTO 00000KT 3SM BR CLR 16/15 A2975 RMK AO2 T01560150 =
2018-06-21 02:06 METAR KTAN 210606Z AUTO 00000KT 1 3/4SM BR CLR 16/15 A2975 RMK AO2 VIS 3/4V5
                 T01560150 =
2018-06-21 01:52 METAR KTAN 210552Z AUTO 00000KT 3/4SM BR CLR 16/15 A2976 RMK AO2 VIS 1/2V3
                 SLP076 T01610150 10228 20161 56006 =
2018-06-21 01:39 METAR KTAN 210539Z AUTO 00000KT 1 3/4SM BR CLR 16/16 A2976 RMK AO2 T01610156 =
2018-06-21 01:35 METAR KTAN 210535Z AUTO 00000KT 3SM BR CLR 17/16 A2976 RMK AO2 T01670156 =
2018-06-21 01:29 METAR KTAN 210529Z AUTO 00000KT 1 3/4SM BR CLR 17/16 A2976 RMK AO2 T01670156 =
2018-06-21 00:52 METAR KTAN 210452Z AUTO 00000KT 10SM CLR 18/17 A2977 RMK AO2 SLP079 T01830172
                 402830089 =
2018-06-20 23:52 METAR KTAN 210352Z AUTO 00000KT 10SM CLR 19/18 A2978 RMK AO2 SLP082 T01940178 =
2018-06-20 22:52 METAR KTAN 210252Z AUTO 20004KT 10SM CLR 21/18 A2978 RMK AO2 SLP084 T02060178
                 50006 =
2018-06-20 21:52 METAR KTAN 210152Z AUTO VRB05KT 10SM CLR 21/18 A2979 RMK AO2 SLP087 T02110178 =
2018-06-20 20:52 METAR KTAN 210052Z AUTO 22005KT 10SM CLR 22/17 A2977 RMK AO2 SLP081 T02170172 =
2018-06-20 19:52 METAR KTAN 202352Z AUTO 20005KT 10SM CLR 23/17 A2977 RMK AO2 SLP079 T02280167
                 10283 20228 55006 =
2018-06-20 18:52 METAR KTAN 202252Z AUTO 21007KT 10SM CLR 23/16 A2977 RMK AO2 SLP078 T02330161 =
2018-06-20 17:52 METAR KTAN 202152Z AUTO 21008KT 10SM CLR 25/14 A2977 RMK AO2 SLP081 T02500144 =
2018-06-20 16:52 METAR KTAN 202052Z AUTO 22009KT 10SM CLR 26/14 A2979 RMK AO2 SLP086 T02610139
                 58010 =
2018-06-20 15:52 METAR KTAN 201952Z AUTO 21008G15KT 190V260 10SM CLR 27/14 A2980 RMK AO2 SLP091
                 T02720144 =
2018-06-20 14:52 METAR KTAN 201852Z AUTO 23007KT 190V250 10SM CLR 27/13 A2981 RMK AO2 SLP093
                 T02720128 =
2018-06-20 13:52 METAR KTAN 201752Z AUTO 21010G16KT 10SM CLR 27/13 A2982 RMK AO2 SLP095 T02720133
                 10278 20194 58018 =
2018-06-20 12:52 METAR KTAN 201652Z AUTO VRB06KT 10SM CLR 26/13 A2984 RMK AO2 SLP105 T02560133 =

Support USWX by starting your Amazon purchase here.